sensor_id;sensor_type;location;lat;lon;timestamp;P1;durP1;ratioP1;P2;durP2;ratioP2
41677;SDS011;27364;49.026;8.712;2023-08-01T00:00:28;0.88;;;0.75;;
41677;SDS011;27364;49.026;8.712;2023-08-01T00:02:54;0.85;;;0.55;;
41677;SDS011;27364;49.026;8.712;2023-08-01T00:05:20;1.27;;;0.85;;
41677;SDS011;27364;49.026;8.712;2023-08-01T00:07:45;0.75;;;0.75;;
41677;SDS011;27364;49.026;8.712;2023-08-01T00:10:11;1.13;;;1.00;;
41677;SDS011;27364;49.026;8.712;2023-08-01T00:12:36;2.67;;;0.95;;
41677;SDS011;27364;49.026;8.712;2023-08-01T00:15:02;0.85;;;0.85;;
41677;SDS011;27364;49.026;8.712;2023-08-01T00:17:28;0.98;;;0.88;;
41677;SDS011;27364;49.026;8.712;2023-08-01T00:19:54;7.13;;;1.05;;
41677;SDS011;27364;49.026;8.712;2023-08-01T00:22:20;1.20;;;1.00;;
41677;SDS011;27364;49.026;8.712;2023-08-01T00:24:46;2.28;;;1.17;;
41677;SDS011;27364;49.026;8.712;2023-08-01T00:27:14;1.40;;;1.17;;
41677;SDS011;27364;49.026;8.712;2023-08-01T00:29:40;0.60;;;0.60;;
41677;SDS011;27364;49.026;8.712;2023-08-01T00:32:06;0.75;;;0.75;;
41677;SDS011;27364;49.026;8.712;2023-08-01T00:34:32;0.60;;;0.60;;
41677;SDS011;27364;49.026;8.712;2023-08-01T00:36:57;0.75;;;0.75;;
41677;SDS011;27364;49.026;8.712;2023-08-01T00:39:23;0.70;;;0.70;;
41677;SDS011;27364;49.026;8.712;2023-08-01T00:41:48;0.75;;;0.75;;
41677;SDS011;27364;49.026;8.712;2023-08-01T00:44:14;6.93;;;0.95;;
41677;SDS011;27364;49.026;8.712;2023-08-01T00:46:40;1.75;;;1.05;;
41677;SDS011;27364;49.026;8.712;2023-08-01T00:49:05;1.08;;;0.90;;
41677;SDS011;27364;49.026;8.712;2023-08-01T00:51:33;1.70;;;1.05;;
41677;SDS011;27364;49.026;8.712;2023-08-01T00:53:59;0.88;;;0.82;;
41677;SDS011;27364;49.026;8.712;2023-08-01T00:56:25;1.88;;;1.20;;
41677;SDS011;27364;49.026;8.712;2023-08-01T00:58:51;0.80;;;0.80;;
41677;SDS011;27364;49.026;8.712;2023-08-01T01:01:17;0.95;;;0.95;;
41677;SDS011;27364;49.026;8.712;2023-08-01T01:03:43;0.88;;;0.85;;
41677;SDS011;27364;49.026;8.712;2023-08-01T01:08:58;0.95;;;0.80;;
41677;SDS011;27364;49.026;8.712;2023-08-01T01:11:24;0.95;;;0.95;;
41677;SDS011;27364;49.026;8.712;2023-08-01T01:13:49;0.85;;;0.85;;
41677;SDS011;27364;49.026;8.712;2023-08-01T01:16:18;0.65;;;0.65;;
41677;SDS011;27364;49.026;8.712;2023-08-01T01:18:44;0.65;;;0.65;;
41677;SDS011;27364;49.026;8.712;2023-08-01T01:24:36;1.40;;;0.93;;
41677;SDS011;27364;49.026;8.712;2023-08-01T01:27:03;1.25;;;1.00;;
41677;SDS011;27364;49.026;8.712;2023-08-01T01:29:30;1.33;;;1.10;;
41677;SDS011;27364;49.026;8.712;2023-08-01T01:31:58;0.98;;;0.93;;
41677;SDS011;27364;49.026;8.712;2023-08-01T01:34:25;0.85;;;0.85;;
41677;SDS011;27364;49.026;8.712;2023-08-01T01:36:52;1.33;;;1.23;;
41677;SDS011;27364;49.026;8.712;2023-08-01T01:39:18;0.82;;;0.82;;
41677;SDS011;27364;49.026;8.712;2023-08-01T01:41:43;1.23;;;1.13;;
41677;SDS011;27364;49.026;8.712;2023-08-01T01:44:09;0.82;;;0.80;;
41677;SDS011;27364;49.026;8.712;2023-08-01T01:46:34;0.90;;;0.88;;
41677;SDS011;27364;49.026;8.712;2023-08-01T01:49:00;0.90;;;0.90;;
41677;SDS011;27364;49.026;8.712;2023-08-01T01:51:26;1.30;;;0.93;;
41677;SDS011;27364;49.026;8.712;2023-08-01T01:53:52;1.10;;;1.00;;
41677;SDS011;27364;49.026;8.712;2023-08-01T01:56:18;1.95;;;1.42;;
41677;SDS011;27364;49.026;8.712;2023-08-01T01:58:43;0.70;;;0.70;;
41677;SDS011;27364;49.026;8.712;2023-08-01T02:01:09;0.93;;;0.88;;
41677;SDS011;27364;49.026;8.712;2023-08-01T02:03:34;1.90;;;1.23;;
41677;SDS011;27364;49.026;8.712;2023-08-01T02:06:01;0.82;;;0.75;;
41677;SDS011;27364;49.026;8.712;2023-08-01T02:08:28;0.70;;;0.70;;
41677;SDS011;27364;49.026;8.712;2023-08-01T02:10:54;0.82;;;0.82;;
41677;SDS011;27364;49.026;8.712;2023-08-01T02:13:22;1.45;;;1.02;;
41677;SDS011;27364;49.026;8.712;2023-08-01T02:15:49;0.60;;;0.60;;
41677;SDS011;27364;49.026;8.712;2023-08-01T02:18:14;0.73;;;0.73;;
41677;SDS011;27364;49.026;8.712;2023-08-01T02:20:40;0.70;;;0.70;;
41677;SDS011;27364;49.026;8.712;2023-08-01T02:23:05;0.77;;;0.77;;
41677;SDS011;27364;49.026;8.712;2023-08-01T02:25:31;1.30;;;1.20;;
41677;SDS011;27364;49.026;8.712;2023-08-01T02:27:56;2.08;;;1.13;;
41677;SDS011;27364;49.026;8.712;2023-08-01T02:30:22;0.93;;;0.82;;
41677;SDS011;27364;49.026;8.712;2023-08-01T02:32:47;1.25;;;0.95;;
41677;SDS011;27364;49.026;8.712;2023-08-01T02:35:13;1.13;;;1.00;;
41677;SDS011;27364;49.026;8.712;2023-08-01T02:37:39;0.85;;;0.85;;
41677;SDS011;27364;49.026;8.712;2023-08-01T02:40:04;0.90;;;0.90;;
41677;SDS011;27364;49.026;8.712;2023-08-01T02:42:33;2.10;;;1.25;;
41677;SDS011;27364;49.026;8.712;2023-08-01T02:44:59;0.95;;;0.82;;
41677;SDS011;27364;49.026;8.712;2023-08-01T02:47:24;0.90;;;0.90;;
41677;SDS011;27364;49.026;8.712;2023-08-01T02:49:50;1.02;;;0.93;;
41677;SDS011;27364;49.026;8.712;2023-08-01T02:52:15;0.77;;;0.75;;
41677;SDS011;27364;49.026;8.712;2023-08-01T02:54:41;1.05;;;1.00;;
41677;SDS011;27364;49.026;8.712;2023-08-01T02:57:06;1.65;;;1.42;;
41677;SDS011;27364;49.026;8.712;2023-08-01T02:59:32;0.73;;;0.73;;
41677;SDS011;27364;49.026;8.712;2023-08-01T03:01:58;1.77;;;1.00;;
41677;SDS011;27364;49.026;8.712;2023-08-01T03:04:24;0.65;;;0.65;;
41677;SDS011;27364;49.026;8.712;2023-08-01T03:06:49;1.10;;;1.00;;
41677;SDS011;27364;49.026;8.712;2023-08-01T03:09:15;1.15;;;1.05;;
41677;SDS011;27364;49.026;8.712;2023-08-01T03:11:41;0.65;;;0.65;;
41677;SDS011;27364;49.026;8.712;2023-08-01T03:14:06;0.68;;;0.68;;
41677;SDS011;27364;49.026;8.712;2023-08-01T03:16:32;0.65;;;0.65;;
41677;SDS011;27364;49.026;8.712;2023-08-01T03:18:58;1.10;;;0.82;;
41677;SDS011;27364;49.026;8.712;2023-08-01T03:21:29;0.63;;;0.63;;
41677;SDS011;27364;49.026;8.712;2023-08-01T03:23:58;0.93;;;0.85;;
41677;SDS011;27364;49.026;8.712;2023-08-01T03:26:24;0.60;;;0.60;;
41677;SDS011;27364;49.026;8.712;2023-08-01T03:28:49;1.42;;;1.15;;
41677;SDS011;27364;49.026;8.712;2023-08-01T03:31:15;0.60;;;0.60;;
41677;SDS011;27364;49.026;8.712;2023-08-01T03:33:40;0.47;;;0.47;;
41677;SDS011;27364;49.026;8.712;2023-08-01T03:36:06;0.85;;;0.82;;
41677;SDS011;27364;49.026;8.712;2023-08-01T03:38:32;2.90;;;1.30;;
41677;SDS011;27364;49.026;8.712;2023-08-01T03:40:57;0.50;;;0.47;;
41677;SDS011;27364;49.026;8.712;2023-08-01T03:43:23;0.80;;;0.80;;
41677;SDS011;27364;49.026;8.712;2023-08-01T03:45:49;0.93;;;0.90;;
41677;SDS011;27364;49.026;8.712;2023-08-01T03:48:15;0.82;;;0.82;;
41677;SDS011;27364;49.026;8.712;2023-08-01T03:50:40;0.75;;;0.75;;
41677;SDS011;27364;49.026;8.712;2023-08-01T03:53:06;0.80;;;0.80;;
41677;SDS011;27364;49.026;8.712;2023-08-01T03:55:32;1.35;;;1.25;;
41677;SDS011;27364;49.026;8.712;2023-08-01T03:57:58;1.30;;;1.10;;
41677;SDS011;27364;49.026;8.712;2023-08-01T04:00:23;1.05;;;0.95;;
41677;SDS011;27364;49.026;8.712;2023-08-01T04:02:49;0.82;;;0.82;;
41677;SDS011;27364;49.026;8.712;2023-08-01T04:05:15;0.93;;;0.90;;
41677;SDS011;27364;49.026;8.712;2023-08-01T04:07:40;0.80;;;0.80;;
41677;SDS011;27364;49.026;8.712;2023-08-01T04:10:06;0.75;;;0.73;;
41677;SDS011;27364;49.026;8.712;2023-08-01T04:12:32;1.92;;;1.15;;
41677;SDS011;27364;49.026;8.712;2023-08-01T04:14:59;0.82;;;0.82;;
41677;SDS011;27364;49.026;8.712;2023-08-01T04:17:24;1.05;;;0.93;;
41677;SDS011;27364;49.026;8.712;2023-08-01T04:19:50;0.60;;;0.60;;
41677;SDS011;27364;49.026;8.712;2023-08-01T04:22:16;2.03;;;1.35;;
41677;SDS011;27364;49.026;8.712;2023-08-01T04:24:41;0.82;;;0.82;;
41677;SDS011;27364;49.026;8.712;2023-08-01T04:27:07;0.70;;;0.65;;
41677;SDS011;27364;49.026;8.712;2023-08-01T04:29:34;1.25;;;0.90;;
41677;SDS011;27364;49.026;8.712;2023-08-01T04:31:59;1.15;;;0.90;;
41677;SDS011;27364;49.026;8.712;2023-08-01T04:34:25;0.80;;;0.80;;
41677;SDS011;27364;49.026;8.712;2023-08-01T04:36:51;0.63;;;0.63;;
41677;SDS011;27364;49.026;8.712;2023-08-01T04:39:16;0.50;;;0.50;;
41677;SDS011;27364;49.026;8.712;2023-08-01T04:41:42;3.88;;;1.13;;
41677;SDS011;27364;49.026;8.712;2023-08-01T04:44:07;0.70;;;0.70;;
41677;SDS011;27364;49.026;8.712;2023-08-01T04:46:33;1.13;;;1.02;;
41677;SDS011;27364;49.026;8.712;2023-08-01T04:48:58;2.05;;;1.20;;
41677;SDS011;27364;49.026;8.712;2023-08-01T04:51:24;0.50;;;0.50;;
41677;SDS011;27364;49.026;8.712;2023-08-01T04:53:50;0.68;;;0.68;;
41677;SDS011;27364;49.026;8.712;2023-08-01T04:56:16;0.73;;;0.73;;
41677;SDS011;27364;49.026;8.712;2023-08-01T04:58:41;0.90;;;0.85;;
41677;SDS011;27364;49.026;8.712;2023-08-01T05:01:07;0.60;;;0.60;;
41677;SDS011;27364;49.026;8.712;2023-08-01T05:03:32;1.10;;;1.00;;
41677;SDS011;27364;49.026;8.712;2023-08-01T05:05:58;1.30;;;1.17;;
41677;SDS011;27364;49.026;8.712;2023-08-01T05:08:23;1.35;;;1.25;;
41677;SDS011;27364;49.026;8.712;2023-08-01T05:10:49;1.10;;;1.00;;
41677;SDS011;27364;49.026;8.712;2023-08-01T05:13:15;0.63;;;0.63;;
41677;SDS011;27364;49.026;8.712;2023-08-01T05:15:43;1.13;;;1.02;;
41677;SDS011;27364;49.026;8.712;2023-08-01T05:18:10;1.20;;;1.08;;
41677;SDS011;27364;49.026;8.712;2023-08-01T05:20:35;1.10;;;1.00;;
41677;SDS011;27364;49.026;8.712;2023-08-01T05:23:01;1.67;;;1.58;;
41677;SDS011;27364;49.026;8.712;2023-08-01T05:25:26;2.35;;;1.33;;
41677;SDS011;27364;49.026;8.712;2023-08-01T05:27:52;0.68;;;0.68;;
41677;SDS011;27364;49.026;8.712;2023-08-01T05:30:17;0.93;;;0.93;;
41677;SDS011;27364;49.026;8.712;2023-08-01T05:32:43;1.15;;;1.05;;
41677;SDS011;27364;49.026;8.712;2023-08-01T05:35:10;0.95;;;0.90;;
41677;SDS011;27364;49.026;8.712;2023-08-01T05:37:35;1.23;;;1.13;;
41677;SDS011;27364;49.026;8.712;2023-08-01T05:40:02;0.70;;;0.70;;
41677;SDS011;27364;49.026;8.712;2023-08-01T05:42:28;1.92;;;1.35;;
41677;SDS011;27364;49.026;8.712;2023-08-01T05:44:54;0.90;;;0.90;;
41677;SDS011;27364;49.026;8.712;2023-08-01T05:47:19;1.40;;;0.82;;
41677;SDS011;27364;49.026;8.712;2023-08-01T05:49:47;1.45;;;1.05;;
41677;SDS011;27364;49.026;8.712;2023-08-01T05:52:13;1.00;;;0.95;;
41677;SDS011;27364;49.026;8.712;2023-08-01T05:54:38;0.57;;;0.57;;
41677;SDS011;27364;49.026;8.712;2023-08-01T05:57:04;0.98;;;0.90;;
41677;SDS011;27364;49.026;8.712;2023-08-01T05:59:30;1.27;;;1.17;;
41677;SDS011;27364;49.026;8.712;2023-08-01T06:01:56;1.20;;;1.10;;
41677;SDS011;27364;49.026;8.712;2023-08-01T06:04:21;3.13;;;1.90;;
41677;SDS011;27364;49.026;8.712;2023-08-01T06:06:47;1.48;;;1.30;;
41677;SDS011;27364;49.026;8.712;2023-08-01T06:09:13;1.48;;;1.25;;
41677;SDS011;27364;49.026;8.712;2023-08-01T06:11:38;2.65;;;2.45;;
41677;SDS011;27364;49.026;8.712;2023-08-01T06:14:04;1.83;;;1.48;;
41677;SDS011;27364;49.026;8.712;2023-08-01T06:16:29;0.85;;;0.85;;
41677;SDS011;27364;49.026;8.712;2023-08-01T06:18:55;2.05;;;1.33;;
41677;SDS011;27364;49.026;8.712;2023-08-01T06:21:21;2.38;;;1.20;;
41677;SDS011;27364;49.026;8.712;2023-08-01T06:23:47;0.90;;;0.90;;
41677;SDS011;27364;49.026;8.712;2023-08-01T06:26:12;0.80;;;0.80;;
41677;SDS011;27364;49.026;8.712;2023-08-01T06:28:40;0.90;;;0.90;;
41677;SDS011;27364;49.026;8.712;2023-08-01T06:31:06;1.63;;;1.45;;
41677;SDS011;27364;49.026;8.712;2023-08-01T06:33:31;1.10;;;1.00;;
41677;SDS011;27364;49.026;8.712;2023-08-01T06:35:57;1.65;;;1.20;;
41677;SDS011;27364;49.026;8.712;2023-08-01T06:38:22;1.10;;;1.00;;
41677;SDS011;27364;49.026;8.712;2023-08-01T06:40:48;2.50;;;1.20;;
41677;SDS011;27364;49.026;8.712;2023-08-01T06:43:14;1.17;;;0.98;;
41677;SDS011;27364;49.026;8.712;2023-08-01T06:45:39;0.82;;;0.82;;
41677;SDS011;27364;49.026;8.712;2023-08-01T06:48:05;1.23;;;1.13;;
41677;SDS011;27364;49.026;8.712;2023-08-01T06:50:30;0.80;;;0.80;;
41677;SDS011;27364;49.026;8.712;2023-08-01T06:52:56;1.10;;;1.00;;
41677;SDS011;27364;49.026;8.712;2023-08-01T06:55:21;1.17;;;1.08;;
41677;SDS011;27364;49.026;8.712;2023-08-01T06:57:47;1.33;;;1.20;;
41677;SDS011;27364;49.026;8.712;2023-08-01T07:00:13;2.33;;;1.38;;
41677;SDS011;27364;49.026;8.712;2023-08-01T07:02:38;2.10;;;1.42;;
41677;SDS011;27364;49.026;8.712;2023-08-01T07:05:04;0.80;;;0.80;;
41677;SDS011;27364;49.026;8.712;2023-08-01T07:07:30;0.82;;;0.82;;
41677;SDS011;27364;49.026;8.712;2023-08-01T07:09:55;1.02;;;0.93;;
41677;SDS011;27364;49.026;8.712;2023-08-01T07:12:21;2.05;;;1.52;;
41677;SDS011;27364;49.026;8.712;2023-08-01T07:14:46;0.63;;;0.63;;
41677;SDS011;27364;49.026;8.712;2023-08-01T07:17:12;0.98;;;0.88;;
41677;SDS011;27364;49.026;8.712;2023-08-01T07:19:38;0.80;;;0.80;;
41677;SDS011;27364;49.026;8.712;2023-08-01T07:22:03;1.25;;;1.15;;
41677;SDS011;27364;49.026;8.712;2023-08-01T07:24:29;1.75;;;0.93;;
41677;SDS011;27364;49.026;8.712;2023-08-01T07:26:54;1.35;;;1.10;;
41677;SDS011;27364;49.026;8.712;2023-08-01T07:29:20;0.90;;;0.90;;
41677;SDS011;27364;49.026;8.712;2023-08-01T07:31:45;1.75;;;1.20;;
41677;SDS011;27364;49.026;8.712;2023-08-01T07:34:11;1.08;;;0.98;;
41677;SDS011;27364;49.026;8.712;2023-08-01T07:36:36;1.13;;;1.02;;
41677;SDS011;27364;49.026;8.712;2023-08-01T07:39:02;1.13;;;1.00;;
41677;SDS011;27364;49.026;8.712;2023-08-01T07:41:28;1.63;;;1.00;;
41677;SDS011;27364;49.026;8.712;2023-08-01T07:43:54;1.00;;;0.90;;
41677;SDS011;27364;49.026;8.712;2023-08-01T07:46:19;0.70;;;0.70;;
41677;SDS011;27364;49.026;8.712;2023-08-01T07:48:45;0.82;;;0.80;;
41677;SDS011;27364;49.026;8.712;2023-08-01T07:51:11;0.55;;;0.55;;
41677;SDS011;27364;49.026;8.712;2023-08-01T07:53:36;1.67;;;1.00;;
41677;SDS011;27364;49.026;8.712;2023-08-01T07:56:02;0.68;;;0.68;;
41677;SDS011;27364;49.026;8.712;2023-08-01T07:58:28;0.98;;;0.90;;
41677;SDS011;27364;49.026;8.712;2023-08-01T08:00:54;0.57;;;0.57;;
41677;SDS011;27364;49.026;8.712;2023-08-01T08:03:20;0.45;;;0.45;;
41677;SDS011;27364;49.026;8.712;2023-08-01T08:05:48;0.57;;;0.57;;
41677;SDS011;27364;49.026;8.712;2023-08-01T08:08:14;0.68;;;0.68;;
41677;SDS011;27364;49.026;8.712;2023-08-01T08:10:40;0.65;;;0.65;;
41677;SDS011;27364;49.026;8.712;2023-08-01T08:13:05;0.40;;;0.40;;
41677;SDS011;27364;49.026;8.712;2023-08-01T08:15:31;0.52;;;0.52;;
41677;SDS011;27364;49.026;8.712;2023-08-01T08:17:59;0.65;;;0.65;;
41677;SDS011;27364;49.026;8.712;2023-08-01T08:20:26;0.57;;;0.57;;
41677;SDS011;27364;49.026;8.712;2023-08-01T08:22:51;0.60;;;0.60;;
41677;SDS011;27364;49.026;8.712;2023-08-01T08:25:17;0.40;;;0.40;;
41677;SDS011;27364;49.026;8.712;2023-08-01T08:27:43;0.40;;;0.40;;
41677;SDS011;27364;49.026;8.712;2023-08-01T08:30:08;0.95;;;0.75;;
41677;SDS011;27364;49.026;8.712;2023-08-01T08:32:35;1.35;;;0.82;;
41677;SDS011;27364;49.026;8.712;2023-08-01T08:35:00;0.60;;;0.60;;
41677;SDS011;27364;49.026;8.712;2023-08-01T08:37:26;0.50;;;0.50;;
41677;SDS011;27364;49.026;8.712;2023-08-01T08:39:54;0.35;;;0.35;;
41677;SDS011;27364;49.026;8.712;2023-08-01T08:42:20;0.43;;;0.35;;
41677;SDS011;27364;49.026;8.712;2023-08-01T08:44:45;0.40;;;0.40;;
41677;SDS011;27364;49.026;8.712;2023-08-01T08:47:14;0.75;;;0.75;;
41677;SDS011;27364;49.026;8.712;2023-08-01T08:49:42;0.57;;;0.57;;
41677;SDS011;27364;49.026;8.712;2023-08-01T08:52:09;0.43;;;0.43;;
41677;SDS011;27364;49.026;8.712;2023-08-01T08:54:35;0.45;;;0.45;;
41677;SDS011;27364;49.026;8.712;2023-08-01T08:57:03;0.43;;;0.43;;
41677;SDS011;27364;49.026;8.712;2023-08-01T08:59:33;0.47;;;0.47;;
41677;SDS011;27364;49.026;8.712;2023-08-01T09:01:59;0.50;;;0.50;;
41677;SDS011;27364;49.026;8.712;2023-08-01T09:04:26;0.38;;;0.38;;
41677;SDS011;27364;49.026;8.712;2023-08-01T09:06:53;0.88;;;0.57;;
41677;SDS011;27364;49.026;8.712;2023-08-01T09:09:23;0.50;;;0.50;;
41677;SDS011;27364;49.026;8.712;2023-08-01T09:11:51;0.40;;;0.40;;
41677;SDS011;27364;49.026;8.712;2023-08-01T09:14:18;0.50;;;0.50;;
41677;SDS011;27364;49.026;8.712;2023-08-01T09:16:44;0.70;;;0.70;;
41677;SDS011;27364;49.026;8.712;2023-08-01T09:19:15;0.77;;;0.70;;
41677;SDS011;27364;49.026;8.712;2023-08-01T09:21:45;1.33;;;0.75;;
41677;SDS011;27364;49.026;8.712;2023-08-01T09:24:14;0.75;;;0.73;;
41677;SDS011;27364;49.026;8.712;2023-08-01T09:26:44;0.30;;;0.30;;
41677;SDS011;27364;49.026;8.712;2023-08-01T09:29:11;0.47;;;0.47;;
41677;SDS011;27364;49.026;8.712;2023-08-01T09:31:41;0.43;;;0.43;;
41677;SDS011;27364;49.026;8.712;2023-08-01T09:37:03;0.50;;;0.50;;
41677;SDS011;27364;49.026;8.712;2023-08-01T09:39:28;0.55;;;0.55;;
41677;SDS011;27364;49.026;8.712;2023-08-01T09:41:54;0.50;;;0.50;;
41677;SDS011;27364;49.026;8.712;2023-08-01T09:44:22;0.40;;;0.40;;
41677;SDS011;27364;49.026;8.712;2023-08-01T09:47:00;0.30;;;0.30;;
41677;SDS011;27364;49.026;8.712;2023-08-01T09:49:31;0.30;;;0.30;;
41677;SDS011;27364;49.026;8.712;2023-08-01T09:51:57;0.30;;;0.30;;
41677;SDS011;27364;49.026;8.712;2023-08-01T09:54:23;0.38;;;0.38;;
41677;SDS011;27364;49.026;8.712;2023-08-01T09:56:50;0.50;;;0.50;;
41677;SDS011;27364;49.026;8.712;2023-08-01T09:59:18;0.40;;;0.40;;
41677;SDS011;27364;49.026;8.712;2023-08-01T10:01:47;1.95;;;0.75;;
41677;SDS011;27364;49.026;8.712;2023-08-01T10:04:18;0.35;;;0.35;;
41677;SDS011;27364;49.026;8.712;2023-08-01T10:06:58;0.40;;;0.40;;
41677;SDS011;27364;49.026;8.712;2023-08-01T10:09:25;0.40;;;0.40;;
41677;SDS011;27364;49.026;8.712;2023-08-01T10:11:52;0.50;;;0.50;;
41677;SDS011;27364;49.026;8.712;2023-08-01T10:14:21;0.30;;;0.30;;
41677;SDS011;27364;49.026;8.712;2023-08-01T10:16:48;0.50;;;0.50;;
41677;SDS011;27364;49.026;8.712;2023-08-01T10:19:14;0.50;;;0.50;;
41677;SDS011;27364;49.026;8.712;2023-08-01T10:24:08;0.82;;;0.55;;
41677;SDS011;27364;49.026;8.712;2023-08-01T10:26:36;0.50;;;0.50;;
41677;SDS011;27364;49.026;8.712;2023-08-01T10:29:01;0.63;;;0.60;;
41677;SDS011;27364;49.026;8.712;2023-08-01T10:31:27;0.65;;;0.57;;
41677;SDS011;27364;49.026;8.712;2023-08-01T10:33:59;0.43;;;0.43;;
41677;SDS011;27364;49.026;8.712;2023-08-01T10:36:32;0.40;;;0.40;;
41677;SDS011;27364;49.026;8.712;2023-08-01T10:39:00;0.20;;;0.20;;
41677;SDS011;27364;49.026;8.712;2023-08-01T10:44:12;0.30;;;0.30;;
41677;SDS011;27364;49.026;8.712;2023-08-01T10:46:48;0.80;;;0.47;;
41677;SDS011;27364;49.026;8.712;2023-08-01T10:49:32;0.25;;;0.25;;
41677;SDS011;27364;49.026;8.712;2023-08-01T10:52:17;0.70;;;0.70;;
41677;SDS011;27364;49.026;8.712;2023-08-01T10:54:44;0.20;;;0.20;;
41677;SDS011;27364;49.026;8.712;2023-08-01T10:57:17;0.30;;;0.30;;
41677;SDS011;27364;49.026;8.712;2023-08-01T10:59:43;0.55;;;0.50;;
41677;SDS011;27364;49.026;8.712;2023-08-01T11:02:10;0.30;;;0.30;;
41677;SDS011;27364;49.026;8.712;2023-08-01T11:04:35;0.20;;;0.20;;
41677;SDS011;27364;49.026;8.712;2023-08-01T11:07:01;0.28;;;0.28;;
41677;SDS011;27364;49.026;8.712;2023-08-01T11:11:55;0.50;;;0.50;;
41677;SDS011;27364;49.026;8.712;2023-08-01T11:14:23;0.47;;;0.47;;
41677;SDS011;27364;49.026;8.712;2023-08-01T11:16:56;0.20;;;0.20;;
41677;SDS011;27364;49.026;8.712;2023-08-01T11:19:23;0.20;;;0.20;;
41677;SDS011;27364;49.026;8.712;2023-08-01T11:24:17;2.15;;;0.55;;
41677;SDS011;27364;49.026;8.712;2023-08-01T11:26:43;0.43;;;0.43;;
41677;SDS011;27364;49.026;8.712;2023-08-01T11:29:11;0.75;;;0.75;;
41677;SDS011;27364;49.026;8.712;2023-08-01T11:31:37;0.52;;;0.50;;
41677;SDS011;27364;49.026;8.712;2023-08-01T11:34:03;0.50;;;0.50;;
41677;SDS011;27364;49.026;8.712;2023-08-01T11:36:29;0.75;;;0.68;;
41677;SDS011;27364;49.026;8.712;2023-08-01T11:38:55;0.35;;;0.35;;
41677;SDS011;27364;49.026;8.712;2023-08-01T11:41:28;0.45;;;0.45;;
41677;SDS011;27364;49.026;8.712;2023-08-01T11:43:55;1.27;;;0.80;;
41677;SDS011;27364;49.026;8.712;2023-08-01T11:46:30;0.50;;;0.50;;
41677;SDS011;27364;49.026;8.712;2023-08-01T11:48:57;0.45;;;0.45;;
41677;SDS011;27364;49.026;8.712;2023-08-01T11:51:23;0.40;;;0.40;;
41677;SDS011;27364;49.026;8.712;2023-08-01T11:54:02;0.50;;;0.50;;
41677;SDS011;27364;49.026;8.712;2023-08-01T11:56:28;0.30;;;0.30;;
41677;SDS011;27364;49.026;8.712;2023-08-01T11:58:55;0.32;;;0.32;;
41677;SDS011;27364;49.026;8.712;2023-08-01T12:01:20;0.50;;;0.50;;
41677;SDS011;27364;49.026;8.712;2023-08-01T12:03:56;0.40;;;0.40;;
41677;SDS011;27364;49.026;8.712;2023-08-01T12:06:23;0.20;;;0.20;;
41677;SDS011;27364;49.026;8.712;2023-08-01T12:08:52;0.68;;;0.63;;
41677;SDS011;27364;49.026;8.712;2023-08-01T12:11:27;5.38;;;0.60;;
41677;SDS011;27364;49.026;8.712;2023-08-01T12:16:26;1.45;;;0.63;;
41677;SDS011;27364;49.026;8.712;2023-08-01T12:18:51;0.30;;;0.30;;
41677;SDS011;27364;49.026;8.712;2023-08-01T12:21:17;0.40;;;0.40;;
41677;SDS011;27364;49.026;8.712;2023-08-01T12:23:42;0.30;;;0.30;;
41677;SDS011;27364;49.026;8.712;2023-08-01T12:26:08;0.50;;;0.50;;
41677;SDS011;27364;49.026;8.712;2023-08-01T12:28:34;0.43;;;0.43;;
41677;SDS011;27364;49.026;8.712;2023-08-01T12:31:00;0.63;;;0.63;;
41677;SDS011;27364;49.026;8.712;2023-08-01T12:33:25;0.30;;;0.30;;
41677;SDS011;27364;49.026;8.712;2023-08-01T12:35:51;0.20;;;0.20;;
41677;SDS011;27364;49.026;8.712;2023-08-01T12:38:17;0.55;;;0.55;;
41677;SDS011;27364;49.026;8.712;2023-08-01T12:40:42;0.40;;;0.40;;
41677;SDS011;27364;49.026;8.712;2023-08-01T12:43:08;0.30;;;0.30;;
41677;SDS011;27364;49.026;8.712;2023-08-01T12:45:34;0.47;;;0.47;;
41677;SDS011;27364;49.026;8.712;2023-08-01T12:47:59;0.20;;;0.20;;
41677;SDS011;27364;49.026;8.712;2023-08-01T12:50:25;0.68;;;0.60;;
41677;SDS011;27364;49.026;8.712;2023-08-01T12:52:50;1.75;;;0.90;;
41677;SDS011;27364;49.026;8.712;2023-08-01T12:55:16;0.40;;;0.40;;
41677;SDS011;27364;49.026;8.712;2023-08-01T12:57:41;0.30;;;0.30;;
41677;SDS011;27364;49.026;8.712;2023-08-01T13:00:08;0.47;;;0.47;;
41677;SDS011;27364;49.026;8.712;2023-08-01T13:02:35;0.20;;;0.20;;
41677;SDS011;27364;49.026;8.712;2023-08-01T13:05:02;0.47;;;0.47;;
41677;SDS011;27364;49.026;8.712;2023-08-01T13:07:28;0.30;;;0.30;;
41677;SDS011;27364;49.026;8.712;2023-08-01T13:09:56;0.20;;;0.20;;
41677;SDS011;27364;49.026;8.712;2023-08-01T13:12:22;0.55;;;0.55;;
41677;SDS011;27364;49.026;8.712;2023-08-01T13:14:47;0.40;;;0.40;;
41677;SDS011;27364;49.026;8.712;2023-08-01T13:17:13;0.50;;;0.50;;
41677;SDS011;27364;49.026;8.712;2023-08-01T13:19:38;0.30;;;0.30;;
41677;SDS011;27364;49.026;8.712;2023-08-01T13:22:04;0.55;;;0.55;;
41677;SDS011;27364;49.026;8.712;2023-08-01T13:24:30;0.30;;;0.30;;
41677;SDS011;27364;49.026;8.712;2023-08-01T13:26:55;0.30;;;0.30;;
41677;SDS011;27364;49.026;8.712;2023-08-01T13:29:21;0.40;;;0.40;;
41677;SDS011;27364;49.026;8.712;2023-08-01T13:31:47;0.40;;;0.40;;
41677;SDS011;27364;49.026;8.712;2023-08-01T13:34:12;0.20;;;0.20;;
41677;SDS011;27364;49.026;8.712;2023-08-01T13:36:38;0.45;;;0.45;;
41677;SDS011;27364;49.026;8.712;2023-08-01T13:39:03;1.48;;;0.60;;
41677;SDS011;27364;49.026;8.712;2023-08-01T13:41:29;0.43;;;0.40;;
41677;SDS011;27364;49.026;8.712;2023-08-01T13:43:54;0.25;;;0.25;;
41677;SDS011;27364;49.026;8.712;2023-08-01T13:46:20;0.35;;;0.35;;
41677;SDS011;27364;49.026;8.712;2023-08-01T13:48:46;0.32;;;0.32;;
41677;SDS011;27364;49.026;8.712;2023-08-01T13:51:12;0.50;;;0.50;;
41677;SDS011;27364;49.026;8.712;2023-08-01T13:53:38;0.40;;;0.40;;
41677;SDS011;27364;49.026;8.712;2023-08-01T13:56:07;0.50;;;0.50;;
41677;SDS011;27364;49.026;8.712;2023-08-01T13:58:33;0.40;;;0.40;;
41677;SDS011;27364;49.026;8.712;2023-08-01T14:01:03;1.25;;;0.88;;
41677;SDS011;27364;49.026;8.712;2023-08-01T14:03:30;0.40;;;0.40;;
41677;SDS011;27364;49.026;8.712;2023-08-01T14:05:56;1.38;;;0.90;;
41677;SDS011;27364;49.026;8.712;2023-08-01T14:08:28;0.50;;;0.50;;
41677;SDS011;27364;49.026;8.712;2023-08-01T14:10:53;1.45;;;0.52;;
41677;SDS011;27364;49.026;8.712;2023-08-01T14:13:19;0.35;;;0.35;;
41677;SDS011;27364;49.026;8.712;2023-08-01T14:15:44;0.75;;;0.75;;
41677;SDS011;27364;49.026;8.712;2023-08-01T14:18:10;0.75;;;0.63;;
41677;SDS011;27364;49.026;8.712;2023-08-01T14:20:35;0.20;;;0.20;;
41677;SDS011;27364;49.026;8.712;2023-08-01T14:23:01;0.52;;;0.52;;
41677;SDS011;27364;49.026;8.712;2023-08-01T14:25:27;0.57;;;0.40;;
41677;SDS011;27364;49.026;8.712;2023-08-01T14:27:52;0.28;;;0.28;;
41677;SDS011;27364;49.026;8.712;2023-08-01T14:30:18;0.52;;;0.52;;
41677;SDS011;27364;49.026;8.712;2023-08-01T14:32:43;0.30;;;0.30;;
41677;SDS011;27364;49.026;8.712;2023-08-01T14:35:09;0.30;;;0.30;;
41677;SDS011;27364;49.026;8.712;2023-08-01T14:37:36;0.65;;;0.63;;
41677;SDS011;27364;49.026;8.712;2023-08-01T14:40:01;0.22;;;0.22;;
41677;SDS011;27364;49.026;8.712;2023-08-01T14:42:28;0.93;;;0.77;;
41677;SDS011;27364;49.026;8.712;2023-08-01T14:44:53;0.32;;;0.32;;
41677;SDS011;27364;49.026;8.712;2023-08-01T14:47:20;0.52;;;0.50;;
41677;SDS011;27364;49.026;8.712;2023-08-01T14:49:45;1.23;;;0.82;;
41677;SDS011;27364;49.026;8.712;2023-08-01T14:52:11;0.60;;;0.60;;
41677;SDS011;27364;49.026;8.712;2023-08-01T14:54:37;0.35;;;0.35;;
41677;SDS011;27364;49.026;8.712;2023-08-01T14:57:05;0.30;;;0.30;;
41677;SDS011;27364;49.026;8.712;2023-08-01T14:59:31;0.50;;;0.50;;
41677;SDS011;27364;49.026;8.712;2023-08-01T15:01:57;0.30;;;0.30;;
41677;SDS011;27364;49.026;8.712;2023-08-01T15:04:23;0.35;;;0.35;;